• Join FlightAware (Why Join?)
  • Login
  • US Flag 
10:27AM EDT


 

Airport Tracker/Info


-or-


 

Live Flight TrackerFlight Track Log ✈ N110GW ✈ 01.11.2013 ✈ KHLG - KPMP

Flight Track Log - Related Links

Times and Time Zones

All times are in EDT time to prevent confusion due to time zone crossing. See the N110GW flight status page for this flight to view local times or setup timezone preferences in your user account.

Time Position Orientation Groundspeed Altitude Reporting Facility
EDT Latitude Longitude Course Direction KTS MPH feet Rate Location/Type
10:07AM 40.1561 -80.6475 171° South 111 128 2,200  Level Cleveland Center
10:08AM 40.1208 -80.6406 171° South 134 154 3,500 840 Climbing Cleveland Center
10:09AM 40.0756 -80.6461 185° South 158 182 4,000 1,320 Climbing Cleveland Center
10:10AM 40.0264 -80.6508 184° South 177 204 6,300 1,800 Climbing Cleveland Center
10:11AM 39.9833 -80.6542 183° South 160 184 7,800 1,500 Climbing Cleveland Center
10:12AM 39.9378 -80.6600 186° South 162 186 9,500 1,680 Climbing Cleveland Center
10:13AM 39.8978 -80.6644 185° South 148 170 11,300 1,800 Climbing Cleveland Center
10:13AM 39.8650 -80.6697 187° South 139 160 12,700 1,500 Climbing Indianapolis Center
10:14AM 39.8264 -80.6736 184° South 140 161 14,000 1,260 Climbing Indianapolis Center
10:15AM 39.7836 -80.6772 184° South 150 173 15,400 1,320 Climbing Indianapolis Center
10:17AM 39.7422 -80.6814 184° South 148 170 16,800 1,440 Climbing Indianapolis Center
10:18AM 39.6911 -80.6861 184° South 151 174 18,400 1,320 Climbing Indianapolis Center
10:19AM 39.6492 -80.6903 184° South 151 174 19,600 1,020 Climbing Indianapolis Center
10:20AM 39.6072 -80.6939 184° South 151 174 20,600 960 Climbing Indianapolis Center
10:21AM 39.5669 -80.6989 185° South 146 168 21,600 960 Climbing Indianapolis Center
10:22AM 39.5267 -80.7025 184° South 145 167 22,600 840 Climbing Indianapolis Center
10:23AM 39.4867 -80.7058 184° South 143 165 23,400 660 Climbing Indianapolis Center
10:24AM 39.4467 -80.7114 186° South 144 166 24,000 240 Climbing Indianapolis Center
10:25AM 39.3886 -80.7172 184° South 169 194 24,000  Level Indianapolis Center
10:26AM 39.3319 -80.7203 182° South 197 227 24,000  Level Indianapolis Center
10:27AM 39.2767 -80.7269 185° South 199 229 24,000  Level Indianapolis Center
10:28AM 39.2189 -80.7336 185° South 206 237 24,000  Level Indianapolis Center
10:29AM 39.1622 -80.7389 184° South 206 237 24,000  Level Indianapolis Center
10:30AM 39.1053 -80.7431 183° South 203 234 24,000  Level Indianapolis Center
10:31AM 39.0481 -80.7486 184° South 205 236 24,000  Level Indianapolis Center
10:32AM 38.9786 -80.7553 184° South 207 238 24,000  Level Indianapolis Center
10:33AM 38.9214 -80.7617 185° South 206 237 24,000  Level Indianapolis Center
10:34AM 38.8644 -80.7675 185° South 204 235 24,000  Level Indianapolis Center
10:35AM 38.8069 -80.7728 184° South 205 236 24,000  Level Indianapolis Center
10:36AM 38.7483 -80.7778 184° South 208 239 24,000  Level Indianapolis Center
10:37AM 38.6889 -80.7833 184° South 212 244 24,000  Level Indianapolis Center
10:38AM 38.6319 -80.7889 184° South 208 239 24,000  Level Indianapolis Center
10:39AM 38.5628 -80.7958 184° South 206 237 24,000  Level Indianapolis Center
10:40AM 38.5061 -80.8008 184° South 205 236 24,000  Level Indianapolis Center
10:41AM 38.4497 -80.8064 184° South 202 232 24,000  Level Indianapolis Center
10:42AM 38.3922 -80.8125 185° South 205 236 24,000  Level Indianapolis Center
10:43AM 38.3333 -80.8172 184° South 209 241 24,000  Level Indianapolis Center
10:44AM 38.2769 -80.8233 185° South 205 236 24,000  Level Indianapolis Center
10:45AM 38.2189 -80.8278 183° South 207 238 24,000  Level Indianapolis Center
10:46AM 38.1503 -80.8353 185° South 205 236 24,000  Level Indianapolis Center
10:48AM 38.0939 -80.8397 184° South 203 234 24,000  Level Indianapolis Center
10:49AM 38.0356 -80.8458 185° South 207 238 24,000  Level Indianapolis Center
10:50AM 37.9789 -80.8506 184° South 206 237 24,000  Level Indianapolis Center
10:51AM 37.9203 -80.8564 184° South 208 239 24,000  Level Indianapolis Center
10:52AM 37.8625 -80.8622 185° South 208 239 24,000  Level Indianapolis Center
10:53AM 37.7967 -80.8678 184° South 207 238 24,000  Level Indianapolis Center
10:54AM 37.7394 -80.8733 184° South 209 241 24,000  Level Indianapolis Center
10:55AM 37.6836 -80.8794 185° South 209 241 24,000  Level Indianapolis Center
10:56AM 37.6144 -80.8842 183° South 213 245 24,000  Level Indianapolis Center
10:57AM 37.5567 -80.8908 185° South 214 246 24,000  Level Indianapolis Center
10:58AM 37.4997 -80.8958 184° South 211 243 24,000  Level Indianapolis Center
10:59AM 37.4403 -80.9011 184° South 216 249 24,000  Level Indianapolis Center
11:00AM 37.3692 -80.9078 184° South 218 251 24,000  Level Indianapolis Center
11:01AM 37.3100 -80.9131 184° South 219 252 24,000  Level Indianapolis Center
11:02AM 37.2525 -80.9183 184° South 214 246 24,000  Level Indianapolis Center
11:03AM 37.1844 -80.9250 184° South 210 242 24,000  Level Indianapolis Center
11:04AM 37.1281 -80.9292 183° South 209 241 24,000  Level Indianapolis Center
11:05AM 37.0700 -80.9381 187° South 215 247 24,000  Level Atlanta Center
11:06AM 37.0117 -80.9403 182° South 215 247 24,000 420 Level Atlanta Center
11:07AM 36.9514 -80.9453 184° South 208 239 24,900 900 Climbing Atlanta Center
11:08AM 36.9078 -80.9497 185° South 185 213 25,900 780 Climbing Atlanta Center
11:09AM 36.8661 -80.9564 187° South 165 190 26,500 480 Climbing Atlanta Center
11:10AM 36.8225 -80.9581 182° South 160 184 26,900 240 Climbing Atlanta Center
11:11AM 36.7808 -80.9622 185° South 166 191 27,000  Climbing Atlanta Center
11:12AM 36.7331 -80.9642 182° South 166 191 27,000  Level Atlanta Center
11:13AM 36.6789 -80.9689 184° South 187 215 27,000  Level Atlanta Center
11:14AM 36.6292 -80.9839 194° South 192 221 27,000  Level Atlanta Center
11:15AM 36.5819 -81.0089 203° Southwest 192 221 27,000 300 Level Atlanta Center
11:16AM 36.5364 -81.0261 197° South 182 209 27,600 480 Climbing Atlanta Center
11:17AM 36.4931 -81.0406 195° South 169 194 28,000 180 Climbing Atlanta Center
11:18AM 36.4456 -81.0578 196° South 169 194 28,000  Level Atlanta Center
11:19AM 36.4042 -81.0800 203° Southwest 169 194 28,000  Level Atlanta Center
11:20AM 36.3567 -81.0997 198° South 174 200 28,000  Level Atlanta Center
11:21AM 36.3072 -81.1247 202° Southwest 186 214 28,000  Level Atlanta Center
11:22AM 36.2556 -81.1422 195° South 191 220 28,000  Level Atlanta Center
11:23AM 36.2036 -81.1439 181° South 196 226 28,000  Level Atlanta Center
11:24AM 36.1453 -81.1461 182° South 202 232 28,000  Level Atlanta Center
11:25AM 36.0828 -81.1533 185° South 202 232 28,000  Level Atlanta Center
11:26AM 36.0267 -81.1581 184° South 202 232 28,000  Level Atlanta Center
11:27AM 35.9703 -81.1600 182° South 202 232 28,000  Level Atlanta Center
11:28AM 35.9161 -81.1644 184° South 202 232 28,000  Level Atlanta Center
11:29AM 35.8578 -81.1667 182° South 202 232 28,000  Level Atlanta Center
11:30AM 35.8017 -81.1711 184° South 202 232 28,000  Level Atlanta Center
11:31AM 35.7433 -81.1731 182° South 207 238 28,000  Level Atlanta Center
11:32AM 35.6869 -81.1753 182° South 207 238 28,000  Level Atlanta Center
11:33AM 35.6244 -81.1797 183° South 215 247 28,000  Level Atlanta Center
11:34AM 35.5658 -81.1742 176° South 215 247 28,000  Level Atlanta Center
11:35AM 35.5053 -81.1714 178° South 215 247 28,000  Level Atlanta Center
11:36AM 35.4467 -81.1631 173° South 215 247 28,000  Level Atlanta Center
11:37AM 35.3903 -81.1575 175° South 215 247 28,000  Level Atlanta Center
11:38AM 35.3317 -81.1519 176° South 215 247 28,000  Level Atlanta Center
11:39AM 35.2731 -81.1464 176° South 215 247 28,000  Level Atlanta Center
11:40AM 35.2144 -81.1356 171° South 216 249 28,000  Level Atlanta Center
11:41AM 35.1539 -81.1275 174° South 216 249 28,000  Level Atlanta Center
11:42AM 35.0931 -81.1197 174° South 223 257 28,000  Level Atlanta Center
11:43AM 35.0408 -81.1139 175° South 223 257 28,000  Level Atlanta Center
11:44AM 34.9825 -81.1183 184° South 213 245 28,000  Level Atlanta Center
11:45AM 34.9219 -81.1231 184° South 213 245 28,000  Level Atlanta Center
11:47AM 34.8256 -81.1325 185° South 202 232 28,000  Level Jacksonville Center
11:48AM 34.7733 -81.1386 185° South 208 239 28,000  Level Jacksonville Center
11:49AM 34.7150 -81.1422 183° South 214 246 28,000  Level Jacksonville Center
11:50AM 34.6567 -81.1461 183° South 220 253 28,000  Level Jacksonville Center
11:51AM 34.5983 -81.1547 187° South 214 246 28,000  Level Jacksonville Center
11:52AM 34.5422 -81.1558 181° South 214 246 28,000  Level Jacksonville Center
11:53AM 34.4839 -81.1619 185° South 214 246 28,000 -540 Level Jacksonville Center
11:54AM 34.4150 -81.1686 185° South 220 253 27,000 -840 Descending Jacksonville Center
11:55AM 34.3464 -81.1725 183° South 240 276 26,400 -600 Descending Jacksonville Center
11:56AM 34.2942 -81.1808 188° South 240 276 25,900 -840 Descending Jacksonville Center
11:57AM 34.2233 -81.1822 181° South 235 270 24,800 -960 Descending Jacksonville Center
11:58AM 34.1567 -81.1886 185° South 235 270 24,000 -420 Descending Jacksonville Center
11:59AM 34.0900 -81.1925 183° South 235 270 24,000  Level Jacksonville Center
12:00PM 34.0275 -81.2061 190° South 235 270 24,000  Level Jacksonville Center
12:01PM 33.9694 -81.2272 197° South 235 270 24,000  Level Jacksonville Center
12:02PM 33.9111 -81.2461 195° South 224 258 24,000  Level Jacksonville Center
12:03PM 33.8508 -81.2647 194° South 224 258 24,000  Level Jacksonville Center
12:04PM 33.7928 -81.2806 193° South 219 252 24,000  Level Jacksonville Center
12:05PM 33.7344 -81.2992 195° South 219 252 24,000  Level Jacksonville Center
12:06PM 33.6700 -81.3028 183° South 225 259 24,000  Level Jacksonville Center
12:07PM 33.6031 -81.3017 179° South 230 265 24,000  Level Jacksonville Center
12:08PM 33.5383 -81.2953 175° South 235 270 24,000  Level Jacksonville Center
12:09PM 33.4714 -81.2939 179° South 235 270 24,000  Level Jacksonville Center
12:10PM 33.4067 -81.2903 177° South 235 270 24,000  Level Jacksonville Center
12:11PM 33.3400 -81.2889 179° South 235 270 24,000  Level Jacksonville Center
12:12PM 33.2731 -81.2853 177° South 235 270 24,000  Level Jacksonville Center
12:13PM 33.2064 -81.2839 179° South 235 270 24,000  Level Jacksonville Center
12:14PM 33.1417 -81.2800 177° South 235 270 24,000  Level Jacksonville Center
12:15PM 33.0769 -81.2761 177° South 235 270 24,000  Level Jacksonville Center
12:16PM 33.0078 -81.2725 177° South 235 270 24,000  Level Jacksonville Center
12:17PM 32.9411 -81.2689 177° South 240 276 24,000  Level Jacksonville Center
12:18PM 32.8742 -81.2675 179° South 240 276 24,000  Level Jacksonville Center
12:19PM 32.8075 -81.2639 177° South 240 276 24,000  Level Jacksonville Center
12:20PM 32.7383 -81.2600 177° South 240 276 24,000  Level Jacksonville Center
12:21PM 32.6675 -81.2589 179° South 240 276 24,000  Level Jacksonville Center
12:22PM 32.6047 -81.2550 177° South 246 283 24,000  Level Jacksonville Center
12:23PM 32.5297 -81.2539 179° South 246 283 24,000  Level Jacksonville Center
12:24PM 32.4650 -81.2503 177° South 246 283 24,000  Level Jacksonville Center
12:25PM 32.3958 -81.2467 177° South 246 283 24,000  Level Jacksonville Center
12:26PM 32.3333 -81.2453 179° South 241 277 24,000  Level Jacksonville Center
12:27PM 32.2664 -81.2417 177° South 234 269 24,000  Level Jacksonville Center
12:28PM 32.2017 -81.2378 177° South 234 269 24,000  Level Jacksonville Center
12:29PM 32.1347 -81.2342 177° South 234 269 24,000  Level Jacksonville Center
12:30PM 32.0681 -81.2303 177° South 234 269 24,000  Level Jacksonville Center
12:31PM 32.0033 -81.2292 179° South 234 269 24,000  Level Jacksonville Center
12:32PM 31.9364 -81.2256 177° South 242 278 24,000  Level Jacksonville Center
12:33PM 31.8758 -81.2217 177° South 237 273 24,000  Level Jacksonville Center
12:34PM 31.8028 -81.2206 179° South 237 273 24,000  Level Jacksonville Center
12:35PM 31.7419 -81.2167 177° South 237 273 24,000  Level Jacksonville Center
12:36PM 31.6711 -81.2131 178° South 237 273 24,000  Level Jacksonville Center
12:37PM 31.6022 -81.2094 177° South 237 273 24,000  Level Jacksonville Center
12:38PM 31.5436 -81.2056 177° South 237 273 24,000  Level Jacksonville Center
12:39PM 31.4706 -81.2022 178° South 237 273 24,000  Level Jacksonville Center
12:40PM 31.4017 -81.2033 181° South 237 273 24,000  Level Jacksonville Center
12:41PM 31.3411 -81.2019 179° South 237 273 24,000  Level Jacksonville Center
12:42PM 31.2764 -81.2008 179° South 237 273 24,000  Level Jacksonville Center
12:43PM 31.2094 -81.1947 176° South 237 273 24,000  Level Jacksonville Center
12:44PM 31.1447 -81.1933 179° South 237 273 24,000  Level Jacksonville Center
12:45PM 31.0778 -81.1872 176° South 237 273 24,000  Level Jacksonville Center
12:46PM 31.0067 -81.1861 179° South 237 273 24,000  Level Jacksonville Center
12:47PM 30.9400 -81.1825 177° South 237 273 24,000  Level Jacksonville Center
12:48PM 30.8731 -81.1814 179° South 237 273 24,000  Level Jacksonville Center
12:49PM 30.8081 -81.1681 170° South 237 273 24,000  Level Jacksonville Center
12:50PM 30.7433 -81.1522 168° South 237 273 24,000  Level Jacksonville Center
12:51PM 30.6761 -81.1392 171° South 237 273 24,000  Level Jacksonville Center
12:52PM 30.6133 -81.1258 170° South 237 273 24,000  Level Jacksonville Center
12:53PM 30.5464 -81.1125 170° South 237 273 24,000  Level Jacksonville Center
12:54PM 30.4814 -81.0992 170° South 237 273 24,000  Level Jacksonville Center
12:55PM 30.4167 -81.0883 172° South 237 273 24,000  Level Jacksonville Center
12:56PM 30.3517 -81.0728 168° South 237 273 24,000  Level Jacksonville Center
12:57PM 30.2867 -81.0619 172° South 237 273 24,000  Level Jacksonville Center
12:58PM 30.2219 -81.0489 170° South 237 273 24,000  Level Jacksonville Center
12:59PM 30.1592 -81.0356 170° South 237 273 24,000  Level Jacksonville Center
01:00PM 30.0919 -81.0247 172° South 237 273 24,000  Level Jacksonville Center
01:01PM 30.0292 -81.0117 170° South 237 273 24,000  Level Jacksonville Center
01:02PM 29.9644 -80.9961 168° South 237 273 24,000  Level Jacksonville Center
01:03PM 29.8953 -80.9878 174° South 237 273 24,000  Level Jacksonville Center
01:04PM 29.8325 -80.9725 168° South 237 273 24,000  Level Jacksonville Center
01:05PM 29.7656 -80.9594 170° South 237 273 24,000  Level Jacksonville Center
01:06PM 29.7025 -80.9464 170° South 237 273 24,000  Level Jacksonville Center
01:07PM 29.6336 -80.9356 172° South 237 273 24,000  Level Jacksonville Center
01:08PM 29.5667 -80.9228 171° South 237 273 24,000  Level Jacksonville Center
01:09PM 29.4994 -80.9075 169° South 237 273 24,000  Level Jacksonville Center
01:10PM 29.4344 -80.8919 168° South 237 273 24,000  Level Jacksonville Center
01:12PM 29.2878 -80.8700 173° South 253 291 24,000  Level Miami Center
01:13PM 29.2233 -80.8556 169° South 253 291 24,000  Level Miami Center
01:14PM 29.1569 -80.8439 171° South 253 291 24,000  Level Miami Center
01:15PM 29.0886 -80.8294 170° South 253 291 24,000  Level Miami Center
01:16PM 29.0203 -80.8150 170° South 253 291 24,000  Level Miami Center
01:17PM 28.9536 -80.8033 171° South 253 291 24,000  Level Miami Center
01:18PM 28.8894 -80.7892 169° South 247 284 24,000  Level Miami Center
01:19PM 28.8231 -80.7750 169° South 247 284 24,000  Level Miami Center
01:20PM 28.7547 -80.7631 171° South 252 290 24,000 -540 Level Miami Center
01:21PM 28.6903 -80.7514 171° South 261 300 23,000 -840 Descending Miami Center
01:22PM 28.6133 -80.7367 170° South 274 315 22,400 -660 Descending Miami Center
01:23PM 28.5306 -80.7197 170° South 274 315 21,700 -720 Descending Miami Center
01:24PM 28.4536 -80.7053 171° South 274 315 21,000 -600 Descending Miami Center
01:25PM 28.3792 -80.6814 164° South 281 323 20,500 -660 Descending Miami Center
01:26PM 28.3181 -80.6253 141° Southeast 286 329 19,700 -900 Descending Miami Center
01:27PM 28.2589 -80.5689 140° Southeast 287 330 18,800 -1,200 Descending Miami Center
01:28PM 28.2000 -80.5128 140° Southeast 290 334 17,400 -1,320 Descending Miami Center
01:29PM 28.1367 -80.4519 140° Southeast 290 334 16,200 -1,260 Descending Miami Center
01:30PM 28.0756 -80.3911 139° Southeast 290 334 14,900 -660 Descending Miami Center
01:31PM 28.0164 -80.3331 139° Southeast 290 334 14,900  Level Miami Center
01:32PM 27.9594 -80.2772 139° Southeast 290 334 14,900  Level Miami Center
01:33PM 27.9042 -80.2239 140° Southeast 278 320 14,900  Level Miami Center
01:34PM 27.8453 -80.1608 137° Southeast 268 308 14,900  Level Miami Center
01:35PM 27.7942 -80.1125 140° Southeast 263 303 14,900  Level Miami Center
01:36PM 27.7389 -80.0569 138° Southeast 263 303 14,900  Level Miami Center
01:37PM 27.6778 -79.9989 140° Southeast 263 303 14,900  Level Miami Center
01:38PM 27.6158 -79.9550 148° Southeast 263 303 14,900 -480 Level Miami Center
01:39PM 27.5453 -79.9392 169° South 257 296 14,000 -1,140 Descending Miami Center
01:40PM 27.4744 -79.9278 172° South 285 328 12,700 -1,080 Descending Miami Center
01:41PM 27.3956 -79.9142 171° South 290 334 11,900 -420 Descending Miami Center
01:42PM 27.3186 -79.9028 173° South 270 311 11,900  Level Miami Center
01:43PM 27.2500 -79.8892 170° South 259 298 11,900  Level Miami Center
01:44PM 27.1789 -79.8875 179° South 253 291 12,000 -180 Climbing Miami Center
01:45PM 27.1183 -79.8858 179° South 253 291 11,600 -780 Descending Miami Center
01:46PM 27.0411 -79.8883 182° South 259 298 10,500 -1,080 Descending Miami Center
01:47PM 26.9556 -79.8861 179° South 280 322 9,500 -780 Descending Miami Center
01:48PM 26.8803 -79.8889 182° South 275 316 9,000 -780 Descending Miami Center
01:49PM 26.8092 -79.8917 182° South 265 305 8,000 -960 Descending Miami Center
01:50PM 26.7464 -79.9042 190° South 265 305 7,100 -1,020 Descending Miami Center
01:51PM 26.6708 -79.9161 188° South 260 299 6,000 -1,260 Descending Miami Center
01:52PM 26.5869 -79.9347 191° South 238 274 4,200 -1,440 Descending Miami Center
01:53PM 26.5472 -79.9383 185° South 237 273 3,200 -780 Descending Miami Center
01:54PM 26.4800 -79.9506 189° South 223 257 3,000 -120 Descending Miami Center
01:55PM 26.4317 -79.9656 196° South 193 222 3,000  Level Miami Center
01:56PM 26.3792 -79.9806 194° South 189 217 3,000  Level Miami Center
01:57PM 26.3328 -80.0025 203° Southwest 190 219 3,000  Level Miami Center
01:58PM 26.3003 -80.0547 235° Southwest 172 198 3,000  Level Miami Center
01:59PM 26.2931 -80.0986 260° West 157 181 3,000  Level Miami Center
02:00PM 26.2939 -80.1472 271° West 153 176 3,000  Level Miami Center
02:01PM 26.2908 -80.1936 266° West 148 170 3,000  Level Miami Center
02:02PM 26.3044 -80.2358 290° West 170 196 3,000 -420 Level Miami Center
02:03PM 26.3261 -80.2017 55° Northeast 163 188 2,200 -780 Descending Miami Center
02:04PM 26.3061 -80.1639 121° Southeast 135 155 1,500 -720 Descending Miami Center
02:05PM 26.2794 -80.1400 141° Southeast 107 123 700 -720 Descending Miami Center